createdAt,value
2017-07-23T00:00:07.056Z,999.0
2017-07-23T00:01:08.453Z,998.9
2017-07-23T00:02:09.857Z,998.9
2017-07-23T00:03:11.256Z,999.0
2017-07-23T00:04:12.653Z,998.9
2017-07-23T00:05:14.052Z,998.9
2017-07-23T00:06:15.449Z,998.8
2017-07-23T00:07:16.846Z,998.9
2017-07-23T00:08:18.247Z,998.9
2017-07-23T00:09:19.647Z,998.9
2017-07-23T00:10:21.049Z,999.0
2017-07-23T00:11:22.446Z,999.0
2017-07-23T00:12:23.842Z,999.0
2017-07-23T00:13:25.242Z,998.9
2017-07-23T00:14:26.637Z,998.9
2017-07-23T00:15:28.043Z,998.9
2017-07-23T00:16:29.448Z,998.9
2017-07-23T00:17:30.857Z,998.9
2017-07-23T00:18:32.252Z,998.9
2017-07-23T00:19:33.656Z,998.9
2017-07-23T00:20:35.059Z,998.9
2017-07-23T00:21:36.450Z,998.9
2017-07-23T00:22:37.850Z,998.9
2017-07-23T00:23:39.250Z,998.9
2017-07-23T00:24:40.649Z,998.9
2017-07-23T00:25:42.052Z,998.9
2017-07-23T00:26:43.447Z,998.9
2017-07-23T00:27:44.843Z,998.8
2017-07-23T00:28:46.250Z,998.8
2017-07-23T00:29:47.655Z,998.8
2017-07-23T00:30:49.047Z,998.8
2017-07-23T00:31:50.455Z,998.8
2017-07-23T00:32:51.855Z,998.8
2017-07-23T00:33:53.249Z,998.8
2017-07-23T00:34:54.647Z,998.8
2017-07-23T00:35:56.067Z,998.8
2017-07-23T00:36:57.443Z,998.8
2017-07-23T00:37:58.840Z,998.8
2017-07-23T00:39:00.242Z,998.9
2017-07-23T00:40:01.636Z,998.9
2017-07-23T00:41:03.034Z,998.9
2017-07-23T00:42:04.430Z,998.9
2017-07-23T00:43:05.831Z,998.9
2017-07-23T00:44:07.229Z,998.9
2017-07-23T00:45:08.630Z,998.9
2017-07-23T00:46:10.036Z,998.9
2017-07-23T00:47:11.429Z,998.9
2017-07-23T00:48:12.834Z,998.9
2017-07-23T00:49:14.229Z,998.9
2017-07-23T00:50:15.637Z,998.9
2017-07-23T00:51:17.025Z,998.9
2017-07-23T00:52:18.427Z,998.9
2017-07-23T00:53:19.826Z,998.9
2017-07-23T00:54:21.225Z,998.9
2017-07-23T00:55:22.621Z,998.9
2017-07-23T00:56:24.024Z,999.0
2017-07-23T00:57:25.417Z,999.0
2017-07-23T00:58:26.826Z,999.0
2017-07-23T00:59:28.227Z,999.0
2017-07-23T01:00:29.632Z,999.0
2017-07-23T01:01:31.029Z,999.0
2017-07-23T01:02:32.428Z,999.0
2017-07-23T01:03:33.822Z,999.0
2017-07-23T01:04:35.220Z,998.9
2017-07-23T01:05:36.623Z,999.0
2017-07-23T01:06:38.020Z,999.0
2017-07-23T01:07:39.436Z,999.0
2017-07-23T01:08:40.816Z,999.0
2017-07-23T01:09:42.215Z,999.0
2017-07-23T01:10:43.623Z,999.0
2017-07-23T01:11:45.020Z,999.0
2017-07-23T01:12:46.422Z,999.0
2017-07-23T01:13:47.821Z,999.0
2017-07-23T01:14:49.221Z,998.9
2017-07-23T01:15:50.616Z,998.9
2017-07-23T01:16:52.007Z,998.9
2017-07-23T01:17:53.409Z,998.9
2017-07-23T01:18:54.807Z,998.9
2017-07-23T01:19:56.204Z,998.9
2017-07-23T01:20:57.607Z,998.9
2017-07-23T01:21:59.012Z,998.9
2017-07-23T01:23:00.401Z,998.8
2017-07-23T01:24:01.796Z,998.9
2017-07-23T01:25:03.197Z,998.8
2017-07-23T01:26:04.596Z,998.9
2017-07-23T01:27:05.998Z,998.9
2017-07-23T01:28:07.396Z,998.9
2017-07-23T01:29:08.800Z,998.9
2017-07-23T01:30:10.201Z,999.0
2017-07-23T01:31:11.594Z,999.0
2017-07-23T01:32:12.996Z,999.0
2017-07-23T01:33:14.391Z,999.0
2017-07-23T01:34:15.790Z,999.0
2017-07-23T01:35:17.214Z,999.1
2017-07-23T01:36:18.612Z,999.3
2017-07-23T01:37:20.010Z,999.4
2017-07-23T01:38:21.413Z,999.5
2017-07-23T01:39:22.812Z,999.6
2017-07-23T01:40:24.212Z,999.5
2017-07-23T01:41:25.609Z,999.6
2017-07-23T01:42:27.009Z,999.6
2017-07-23T01:43:28.407Z,999.6
2017-07-23T01:44:29.803Z,999.6
2017-07-23T01:45:31.199Z,999.6
2017-07-23T01:46:32.598Z,999.6
2017-07-23T01:47:33.996Z,999.5
2017-07-23T01:48:35.394Z,999.5
2017-07-23T01:49:36.792Z,999.6
2017-07-23T01:50:38.205Z,999.6
2017-07-23T01:51:39.600Z,999.6
2017-07-23T01:52:40.993Z,999.6
2017-07-23T01:53:42.393Z,999.6
2017-07-23T01:54:43.789Z,999.6
2017-07-23T01:55:45.186Z,999.7
2017-07-23T01:56:46.585Z,999.7
2017-07-23T01:57:47.983Z,999.6
2017-07-23T01:58:49.379Z,999.7
2017-07-23T01:59:50.778Z,999.7
2017-07-23T02:00:52.175Z,999.6
2017-07-23T02:01:53.567Z,999.6
2017-07-23T02:02:55.011Z,999.6
2017-07-23T02:03:56.411Z,999.4
2017-07-23T02:04:57.814Z,999.4
2017-07-23T02:05:59.208Z,999.3
2017-07-23T02:07:00.607Z,999.2
2017-07-23T02:08:02.005Z,999.3
2017-07-23T02:09:03.405Z,999.3
2017-07-23T02:10:04.798Z,999.4
2017-07-23T02:11:06.203Z,999.4
2017-07-23T02:12:07.599Z,999.4
2017-07-23T02:13:09.003Z,999.3
2017-07-23T02:14:10.398Z,999.4
2017-07-23T02:15:11.795Z,999.3
2017-07-23T02:16:13.192Z,999.3
2017-07-23T02:17:14.589Z,999.3
2017-07-23T02:18:15.986Z,999.3
2017-07-23T02:19:17.387Z,999.3
2017-07-23T02:20:18.781Z,999.3
2017-07-23T02:21:20.187Z,999.3
2017-07-23T02:22:21.575Z,999.3
2017-07-23T02:23:22.995Z,999.3
2017-07-23T02:24:24.373Z,999.4
2017-07-23T02:25:25.774Z,999.4
2017-07-23T02:26:27.178Z,999.4
2017-07-23T02:27:28.571Z,999.4
2017-07-23T02:28:29.971Z,999.4
2017-07-23T02:29:31.367Z,999.4
2017-07-23T02:30:32.765Z,999.4
2017-07-23T02:31:34.178Z,999.4
2017-07-23T02:32:35.572Z,999.5
2017-07-23T02:33:36.969Z,999.5
2017-07-23T02:34:38.368Z,999.5
2017-07-23T02:35:39.766Z,999.5
2017-07-23T02:36:41.163Z,999.5
2017-07-23T02:37:42.561Z,999.5
2017-07-23T02:38:43.963Z,999.5
2017-07-23T02:39:45.369Z,999.5
2017-07-23T02:40:46.769Z,999.5
2017-07-23T02:41:48.169Z,999.5
2017-07-23T02:42:49.563Z,999.5
2017-07-23T02:43:50.960Z,999.5
2017-07-23T02:44:52.359Z,999.5
2017-07-23T02:45:53.753Z,999.5
2017-07-23T02:46:55.152Z,999.4
2017-07-23T02:47:56.554Z,999.5
2017-07-23T02:48:57.947Z,999.5
2017-07-23T02:49:59.345Z,999.4
2017-07-23T02:51:00.748Z,999.4
2017-07-23T02:52:02.148Z,999.5
2017-07-23T02:53:03.545Z,999.5
2017-07-23T02:54:04.939Z,999.5
2017-07-23T02:55:06.342Z,999.5
2017-07-23T02:56:07.739Z,999.6
2017-07-23T02:57:09.129Z,999.6
2017-07-23T02:58:10.527Z,999.6
2017-07-23T02:59:11.925Z,999.6
2017-07-23T03:00:13.322Z,999.6
2017-07-23T03:01:14.721Z,999.6
2017-07-23T03:02:16.120Z,999.6
2017-07-23T03:03:17.520Z,999.6
2017-07-23T03:04:18.912Z,999.6
2017-07-23T03:05:20.309Z,999.6
2017-07-23T03:06:21.710Z,999.7
2017-07-23T03:07:23.103Z,999.7
2017-07-23T03:08:24.503Z,999.7
2017-07-23T03:09:25.903Z,999.6
2017-07-23T03:10:27.298Z,999.6
2017-07-23T03:11:28.698Z,999.6
2017-07-23T03:12:30.095Z,999.6
2017-07-23T03:13:31.491Z,999.6
2017-07-23T03:14:32.889Z,999.7
2017-07-23T03:15:34.286Z,999.7
2017-07-23T03:16:35.687Z,999.7
2017-07-23T03:17:37.081Z,999.7
2017-07-23T03:18:38.481Z,999.7
2017-07-23T03:19:39.881Z,999.8
2017-07-23T03:20:41.274Z,999.8
2017-07-23T03:21:42.671Z,999.8
2017-07-23T03:22:44.074Z,999.8
2017-07-23T03:23:45.478Z,999.8
2017-07-23T03:24:46.869Z,999.8
2017-07-23T03:25:48.263Z,999.8
2017-07-23T03:26:49.665Z,999.8
2017-07-23T03:27:51.060Z,999.7
2017-07-23T03:28:52.458Z,999.8
2017-07-23T03:29:53.893Z,999.7
2017-07-23T03:30:55.295Z,999.7
2017-07-23T03:31:56.694Z,999.8
2017-07-23T03:32:58.046Z,999.8
2017-07-23T03:33:59.439Z,999.8
2017-07-23T03:35:00.834Z,999.8
2017-07-23T03:36:02.234Z,999.8
2017-07-23T03:37:03.631Z,999.8
2017-07-23T03:38:05.030Z,999.8
2017-07-23T03:39:06.426Z,999.8
2017-07-23T03:40:07.821Z,999.8
2017-07-23T03:41:09.218Z,999.9
2017-07-23T03:42:10.613Z,999.8
2017-07-23T03:43:12.015Z,999.8
2017-07-23T03:44:13.414Z,999.8
2017-07-23T03:45:14.810Z,999.9
2017-07-23T03:46:16.207Z,999.9
2017-07-23T03:47:17.615Z,999.9
2017-07-23T03:48:19.062Z,999.9
2017-07-23T03:49:20.441Z,999.9
2017-07-23T03:50:21.877Z,1000.0
2017-07-23T03:51:23.282Z,1000.0
2017-07-23T03:52:24.683Z,1000.0
2017-07-23T03:53:26.078Z,1000.0
2017-07-23T03:54:27.478Z,1000.0
2017-07-23T03:55:28.880Z,1000.1
2017-07-23T03:56:30.354Z,1000.2
2017-07-23T03:57:31.982Z,1000.1
2017-07-23T03:58:33.566Z,1000.1
2017-07-23T03:59:34.966Z,1000.2
2017-07-23T04:00:36.371Z,1000.1
2017-07-23T04:01:37.769Z,1000.1
2017-07-23T04:02:39.174Z,1000.2
2017-07-23T04:03:40.572Z,1000.2
2017-07-23T04:04:41.973Z,1000.2
2017-07-23T04:05:43.375Z,1000.2
2017-07-23T04:06:44.778Z,1000.2
2017-07-23T04:07:46.181Z,1000.3
2017-07-23T04:08:47.578Z,1000.3
2017-07-23T04:09:48.980Z,1000.3
2017-07-23T04:10:50.379Z,1000.3
2017-07-23T04:11:51.780Z,1000.3
2017-07-23T04:12:53.185Z,1000.3
2017-07-23T04:13:54.586Z,1000.3
2017-07-23T04:14:55.983Z,1000.3
2017-07-23T04:15:57.386Z,1000.4
2017-07-23T04:16:58.787Z,1000.4
2017-07-23T04:18:00.186Z,1000.4
2017-07-23T04:19:01.590Z,1000.4
2017-07-23T04:20:02.990Z,1000.4
2017-07-23T04:21:04.397Z,1000.4
2017-07-23T04:22:05.795Z,1000.4
2017-07-23T04:23:07.197Z,1000.4
2017-07-23T04:24:08.597Z,1000.4
2017-07-23T04:25:09.997Z,1000.4
2017-07-23T04:26:11.403Z,1000.5
2017-07-23T04:27:12.804Z,1000.4
2017-07-23T04:28:14.202Z,1000.5
2017-07-23T04:29:15.608Z,1000.4
2017-07-23T04:30:17.009Z,1000.4
2017-07-23T04:31:18.413Z,1000.4
2017-07-23T04:32:19.813Z,1000.4
2017-07-23T04:33:21.213Z,1000.4
2017-07-23T04:34:22.614Z,1000.4
2017-07-23T04:35:24.015Z,1000.4
2017-07-23T04:36:25.416Z,1000.5
2017-07-23T04:37:26.813Z,1000.4
2017-07-23T04:38:28.212Z,1000.5
2017-07-23T04:39:29.613Z,1000.5
2017-07-23T04:40:31.029Z,1000.6
2017-07-23T04:41:32.431Z,1000.6
2017-07-23T04:42:33.838Z,1000.6
2017-07-23T04:43:35.231Z,1000.6
2017-07-23T04:44:36.629Z,1000.6
2017-07-23T04:45:38.030Z,1000.6
2017-07-23T04:46:39.434Z,1000.7
2017-07-23T04:47:40.833Z,1000.6
2017-07-23T04:48:42.241Z,1000.6
2017-07-23T04:49:43.640Z,1000.7
2017-07-23T04:50:45.044Z,1000.7
2017-07-23T04:51:46.445Z,1000.7
2017-07-23T04:52:47.850Z,1000.7
2017-07-23T04:53:49.261Z,1000.7
2017-07-23T04:54:50.654Z,1000.8
2017-07-23T04:55:52.059Z,1000.8
2017-07-23T04:56:53.494Z,1000.8
2017-07-23T04:57:54.901Z,1000.8
2017-07-23T04:58:56.301Z,1000.8
2017-07-23T04:59:57.703Z,1000.8
2017-07-23T05:00:59.103Z,1000.9
2017-07-23T05:02:00.507Z,1000.9
2017-07-23T05:03:01.910Z,1000.9
2017-07-23T05:04:03.311Z,1000.9
2017-07-23T05:05:04.708Z,1000.8
2017-07-23T05:06:06.118Z,1000.9
2017-07-23T05:07:07.519Z,1000.9
2017-07-23T05:08:08.916Z,1000.9
2017-07-23T05:09:10.319Z,1000.9
2017-07-23T05:10:11.720Z,1000.9
2017-07-23T05:11:13.122Z,1000.9
2017-07-23T05:12:14.528Z,1000.9
2017-07-23T05:13:15.935Z,1000.8
2017-07-23T05:14:17.331Z,1000.9
2017-07-23T05:15:18.735Z,1000.9
2017-07-23T05:16:20.144Z,1000.9
2017-07-23T05:17:21.538Z,1000.9
2017-07-23T05:18:22.938Z,1000.9
2017-07-23T05:19:24.341Z,1000.9
2017-07-23T05:20:25.746Z,1000.9
2017-07-23T05:21:27.143Z,1000.8
2017-07-23T05:22:28.550Z,1000.9
2017-07-23T05:23:29.948Z,1000.8
2017-07-23T05:24:31.349Z,1000.8
2017-07-23T05:25:32.756Z,1000.8
2017-07-23T05:26:34.150Z,1000.8
2017-07-23T05:27:35.554Z,1000.8
2017-07-23T05:28:36.955Z,1000.8
2017-07-23T05:29:38.354Z,1000.9
2017-07-23T05:30:39.759Z,1000.9
2017-07-23T05:31:41.161Z,1000.9
2017-07-23T05:32:42.565Z,1000.9
2017-07-23T05:33:43.961Z,1000.9
2017-07-23T05:34:45.366Z,1001.0
2017-07-23T05:35:46.766Z,1001.0
2017-07-23T05:36:48.171Z,1001.0
2017-07-23T05:37:49.570Z,1001.0
2017-07-23T05:38:50.973Z,1001.0
2017-07-23T05:39:52.375Z,1001.0
2017-07-23T05:40:53.774Z,1001.0
2017-07-23T05:41:55.174Z,1001.0
2017-07-23T05:42:56.576Z,1001.0
2017-07-23T05:43:57.975Z,1001.0
2017-07-23T05:44:59.382Z,1001.0
2017-07-23T05:46:00.787Z,1001.0
2017-07-23T05:47:02.185Z,1001.1
2017-07-23T05:48:03.585Z,1001.0
2017-07-23T05:49:04.980Z,1001.0
2017-07-23T05:50:06.381Z,1001.0
2017-07-23T05:51:07.783Z,1001.0
2017-07-23T05:52:09.187Z,1001.1
2017-07-23T05:53:10.589Z,1001.0
2017-07-23T05:54:11.992Z,1001.1
2017-07-23T05:55:13.390Z,1001.1
2017-07-23T05:56:14.794Z,1001.0
2017-07-23T05:57:16.194Z,1001.1
2017-07-23T05:58:17.595Z,1001.1
2017-07-23T05:59:19.001Z,1001.1
2017-07-23T06:00:20.401Z,1001.1
2017-07-23T06:01:21.806Z,1001.2
2017-07-23T06:02:23.205Z,1001.1
2017-07-23T06:03:24.604Z,1001.2
2017-07-23T06:04:26.002Z,1001.1
2017-07-23T06:05:27.409Z,1001.2
2017-07-23T06:06:28.814Z,1001.2
2017-07-23T06:07:30.213Z,1001.2
2017-07-23T06:08:31.615Z,1001.2
2017-07-23T06:09:33.016Z,1001.1
2017-07-23T06:10:34.418Z,1001.2
2017-07-23T06:11:35.813Z,1001.2
2017-07-23T06:12:37.221Z,1001.2
2017-07-23T06:13:38.624Z,1001.2
2017-07-23T06:14:40.033Z,1001.2
2017-07-23T06:15:41.437Z,1001.2
2017-07-23T06:16:42.841Z,1001.2
2017-07-23T06:17:44.246Z,1001.2
2017-07-23T06:18:45.655Z,1001.2
2017-07-23T06:19:47.051Z,1001.2
2017-07-23T06:20:48.544Z,1001.2
2017-07-23T06:21:49.950Z,1001.2
2017-07-23T06:22:51.351Z,1001.2
2017-07-23T06:23:52.790Z,1001.2
2017-07-23T06:24:54.201Z,1001.2
2017-07-23T06:25:55.600Z,1001.2
2017-07-23T06:26:57.159Z,1001.2
2017-07-23T06:27:58.556Z,1001.2
2017-07-23T06:28:59.961Z,1001.2
2017-07-23T06:30:01.365Z,1001.2
2017-07-23T06:31:02.769Z,1001.2
2017-07-23T06:32:04.219Z,1001.2
2017-07-23T06:33:05.631Z,1001.2
2017-07-23T06:34:07.180Z,1001.2
2017-07-23T06:35:08.573Z,1001.3
2017-07-23T06:36:09.993Z,1001.3
2017-07-23T06:37:11.394Z,1001.2
2017-07-23T06:38:12.798Z,1001.3
2017-07-23T06:39:14.355Z,1001.2
2017-07-23T06:40:15.721Z,1001.3
2017-07-23T06:41:17.123Z,1001.3
2017-07-23T06:42:18.528Z,1001.3
2017-07-23T06:43:19.936Z,1001.3
2017-07-23T06:44:21.338Z,1001.2
2017-07-23T06:45:22.742Z,1001.2
2017-07-23T06:46:24.144Z,1001.2
2017-07-23T06:47:25.547Z,1001.2
2017-07-23T06:48:26.951Z,1001.3
2017-07-23T06:49:28.353Z,1001.3
2017-07-23T06:50:29.757Z,1001.3
2017-07-23T06:51:31.178Z,1001.3
2017-07-23T06:52:32.579Z,1001.3
2017-07-23T06:53:33.982Z,1001.3
2017-07-23T06:54:35.386Z,1001.3
2017-07-23T06:55:36.791Z,1001.3
2017-07-23T06:56:38.310Z,1001.3
2017-07-23T06:57:39.903Z,1001.3
2017-07-23T06:58:41.278Z,1001.3
2017-07-23T06:59:42.800Z,1001.2
2017-07-23T07:00:44.203Z,1001.3
2017-07-23T07:01:45.610Z,1001.2
2017-07-23T07:02:47.150Z,1001.3
2017-07-23T07:03:48.760Z,1001.3
2017-07-23T07:04:50.167Z,1001.3
2017-07-23T07:05:51.576Z,1001.3
2017-07-23T07:06:52.974Z,1001.2
2017-07-23T07:07:54.426Z,1001.1
2017-07-23T07:08:55.829Z,1001.2
2017-07-23T07:09:57.233Z,1001.2
2017-07-23T07:10:58.637Z,1001.2
2017-07-23T07:12:00.049Z,1001.2
2017-07-23T07:13:01.456Z,1001.2
2017-07-23T07:14:02.858Z,1001.3
2017-07-23T07:15:04.265Z,1001.2
2017-07-23T07:16:05.670Z,1001.2
2017-07-23T07:17:07.071Z,1001.3
2017-07-23T07:18:08.477Z,1001.3
2017-07-23T07:19:09.881Z,1001.2
2017-07-23T07:20:11.288Z,1001.2
2017-07-23T07:21:12.777Z,1001.3
2017-07-23T07:22:14.174Z,1001.2
2017-07-23T07:23:15.583Z,1001.3
2017-07-23T07:24:16.986Z,1001.3
2017-07-23T07:25:18.415Z,1001.3
2017-07-23T07:26:19.824Z,1001.2
2017-07-23T07:27:21.223Z,1001.2
2017-07-23T07:28:22.627Z,1001.3
2017-07-23T07:29:24.032Z,1001.2
2017-07-23T07:30:25.436Z,1001.3
2017-07-23T07:31:26.839Z,1001.3
2017-07-23T07:32:28.243Z,1001.3
2017-07-23T07:33:29.646Z,1001.3
2017-07-23T07:34:31.052Z,1001.3
2017-07-23T07:35:32.456Z,1001.3
2017-07-23T07:36:33.887Z,1001.2
2017-07-23T07:37:35.298Z,1001.3
2017-07-23T07:38:36.699Z,1001.3
2017-07-23T07:39:38.107Z,1001.3
2017-07-23T07:40:39.515Z,1001.3
2017-07-23T07:41:40.919Z,1001.3
2017-07-23T07:42:42.321Z,1001.3
2017-07-23T07:43:43.724Z,1001.3
2017-07-23T07:44:45.131Z,1001.3
2017-07-23T07:45:46.539Z,1001.3
2017-07-23T07:46:47.947Z,1001.3
2017-07-23T07:47:49.354Z,1001.3
2017-07-23T07:48:50.757Z,1001.3
2017-07-23T07:49:52.164Z,1001.2
2017-07-23T07:50:53.604Z,1001.2
2017-07-23T07:51:55.006Z,1001.3
2017-07-23T07:52:56.510Z,1001.2
2017-07-23T07:53:57.946Z,1001.2
2017-07-23T07:54:59.326Z,1001.2
2017-07-23T07:56:00.733Z,1001.2
2017-07-23T07:57:02.136Z,1001.1
2017-07-23T07:58:03.686Z,1001.2
2017-07-23T07:59:05.149Z,1001.1
2017-07-23T08:00:06.550Z,1001.2
2017-07-23T08:01:08.116Z,1001.2
2017-07-23T08:02:09.544Z,1001.2
2017-07-23T08:03:11.074Z,1001.2
2017-07-23T08:04:12.521Z,1001.2
2017-07-23T08:05:13.961Z,1001.2
2017-07-23T08:06:15.427Z,1001.2
2017-07-23T08:07:16.837Z,1001.2
2017-07-23T08:08:18.242Z,1001.2
2017-07-23T08:09:19.654Z,1001.2
2017-07-23T08:10:21.117Z,1001.3
2017-07-23T08:11:22.520Z,1001.2
2017-07-23T08:12:23.921Z,1001.2
2017-07-23T08:13:25.511Z,1001.2
2017-07-23T08:14:26.920Z,1001.2
2017-07-23T08:15:28.344Z,1001.2
2017-07-23T08:16:29.749Z,1001.2
2017-07-23T08:17:31.247Z,1001.3
2017-07-23T08:18:32.829Z,1001.3
2017-07-23T08:19:34.304Z,1001.2
2017-07-23T08:20:35.823Z,1001.2
2017-07-23T08:21:37.231Z,1001.2
2017-07-23T08:22:38.638Z,1001.2
2017-07-23T08:23:40.047Z,1001.2
2017-07-23T08:24:41.455Z,1001.3
2017-07-23T08:25:42.862Z,1001.1
2017-07-23T08:26:44.287Z,1001.2
2017-07-23T08:27:45.834Z,1001.2
2017-07-23T08:28:47.229Z,1001.2
2017-07-23T08:29:48.647Z,1001.1
2017-07-23T08:30:50.050Z,1001.1
2017-07-23T08:31:51.510Z,1001.2
2017-07-23T08:32:52.941Z,1001.2
2017-07-23T08:33:54.623Z,1001.2
2017-07-23T08:34:56.002Z,1001.2
2017-07-23T08:35:57.449Z,1001.2
2017-07-23T08:36:58.849Z,1001.2
2017-07-23T08:38:00.256Z,1001.2
2017-07-23T08:39:01.673Z,1001.0
2017-07-23T08:40:03.105Z,1001.2
2017-07-23T08:41:04.507Z,1001.2
2017-07-23T08:42:05.907Z,1001.2
2017-07-23T08:43:07.314Z,1001.3
2017-07-23T08:44:08.720Z,1001.1
2017-07-23T08:45:10.125Z,1001.2
2017-07-23T08:46:11.531Z,1001.1
2017-07-23T08:47:12.935Z,1001.2
2017-07-23T08:48:14.339Z,1001.2
2017-07-23T08:49:15.742Z,1001.1
2017-07-23T08:50:17.144Z,1001.1
2017-07-23T08:51:18.550Z,1001.2
2017-07-23T08:52:19.956Z,1001.1
2017-07-23T08:53:21.361Z,1001.1
2017-07-23T08:54:22.766Z,1001.1
2017-07-23T08:55:24.175Z,1001.1
2017-07-23T08:56:25.576Z,1001.2
2017-07-23T08:57:26.981Z,1001.2
2017-07-23T08:58:28.388Z,1001.1
2017-07-23T08:59:29.799Z,1001.1
2017-07-23T09:00:31.221Z,1001.1
2017-07-23T09:01:32.630Z,1001.2
2017-07-23T09:02:34.032Z,1001.2
2017-07-23T09:03:35.436Z,1001.2
2017-07-23T09:04:36.840Z,1001.2
2017-07-23T09:05:38.246Z,1001.3
2017-07-23T09:06:39.653Z,1001.2
2017-07-23T09:07:41.065Z,1001.2
2017-07-23T09:08:42.468Z,1001.3
2017-07-23T09:09:43.872Z,1001.3
2017-07-23T09:10:45.275Z,1001.2
2017-07-23T09:11:46.686Z,1001.3
2017-07-23T09:12:48.114Z,1001.2
2017-07-23T09:13:49.518Z,1001.4
2017-07-23T09:14:50.935Z,1001.4
2017-07-23T09:15:52.383Z,1001.3
2017-07-23T09:16:53.786Z,1001.3
2017-07-23T09:17:55.206Z,1001.4
2017-07-23T09:18:56.625Z,1001.4
2017-07-23T09:19:58.038Z,1001.3
2017-07-23T09:20:59.447Z,1001.3
2017-07-23T09:22:00.866Z,1001.2
2017-07-23T09:23:02.358Z,1001.3
2017-07-23T09:24:03.764Z,1001.3
2017-07-23T09:25:05.169Z,1001.3
2017-07-23T09:26:06.574Z,1001.4
2017-07-23T09:27:07.979Z,1001.4
2017-07-23T09:28:09.385Z,1001.3
2017-07-23T09:29:10.797Z,1001.3
2017-07-23T09:30:12.203Z,1001.4
2017-07-23T09:31:13.837Z,1001.4
2017-07-23T09:32:15.121Z,1001.4
2017-07-23T09:33:16.525Z,1001.4
2017-07-23T09:34:18.108Z,1001.4
2017-07-23T09:35:19.513Z,1001.5
2017-07-23T09:36:20.929Z,1001.4
2017-07-23T09:37:22.324Z,1001.5
2017-07-23T09:38:23.728Z,1001.4
2017-07-23T09:39:25.206Z,1001.4
2017-07-23T09:40:26.493Z,1001.5
2017-07-23T09:41:27.928Z,1001.4
2017-07-23T09:42:29.325Z,1001.5
2017-07-23T09:43:31.046Z,1001.5
2017-07-23T09:44:32.451Z,1001.5
2017-07-23T09:45:33.880Z,1001.4
2017-07-23T09:46:35.291Z,1001.5
2017-07-23T09:47:36.695Z,1001.5
2017-07-23T09:48:38.105Z,1001.5
2017-07-23T09:49:39.516Z,1001.4
2017-07-23T09:50:40.977Z,1001.5
2017-07-23T09:51:42.379Z,1001.5
2017-07-23T09:52:43.783Z,1001.3
2017-07-23T09:53:45.188Z,1001.4
2017-07-23T09:54:46.615Z,1001.5
2017-07-23T09:55:48.015Z,1001.4
2017-07-23T09:56:49.434Z,1001.4
2017-07-23T09:57:50.847Z,1001.5
2017-07-23T09:58:52.368Z,1001.4
2017-07-23T09:59:53.781Z,1001.4
2017-07-23T10:00:55.186Z,1001.4
2017-07-23T10:01:56.590Z,1001.4
2017-07-23T10:02:57.999Z,1001.4
2017-07-23T10:03:59.410Z,1001.4
2017-07-23T10:05:00.819Z,1001.3
2017-07-23T10:06:02.222Z,1001.3
2017-07-23T10:07:03.628Z,1001.3
2017-07-23T10:08:05.034Z,1001.4
2017-07-23T10:09:06.463Z,1001.5
2017-07-23T10:10:07.856Z,1001.4
2017-07-23T10:11:09.305Z,1001.3
2017-07-23T10:12:10.721Z,1001.3
2017-07-23T10:13:12.123Z,1001.4
2017-07-23T10:14:13.526Z,1001.3
2017-07-23T10:15:14.955Z,1001.2
2017-07-23T10:16:16.662Z,1001.3
2017-07-23T10:17:18.152Z,1001.3
2017-07-23T10:18:19.593Z,1001.3
2017-07-23T10:19:21.104Z,1001.3
2017-07-23T10:20:22.505Z,1001.3
2017-07-23T10:21:23.909Z,1001.2
2017-07-23T10:22:25.660Z,1001.3
2017-07-23T10:23:27.054Z,1001.3
2017-07-23T10:24:28.465Z,1001.2
2017-07-23T10:25:29.876Z,1001.3
2017-07-23T10:26:31.286Z,1001.3
2017-07-23T10:27:32.693Z,1001.3
2017-07-23T10:28:34.102Z,1001.3
2017-07-23T10:29:35.500Z,1001.3
2017-07-23T10:30:36.906Z,1001.3
2017-07-23T10:31:38.314Z,1001.3
2017-07-23T10:32:39.721Z,1001.2
2017-07-23T10:33:41.130Z,1001.3
2017-07-23T10:34:42.556Z,1001.3
2017-07-23T10:35:43.963Z,1001.4
2017-07-23T10:36:45.390Z,1001.3
2017-07-23T10:37:46.795Z,1001.2
2017-07-23T10:38:48.201Z,1001.3
2017-07-23T10:39:49.622Z,1001.2
2017-07-23T10:40:51.031Z,1001.2
2017-07-23T10:41:52.437Z,1001.3
2017-07-23T10:42:53.947Z,1001.4
2017-07-23T10:43:55.359Z,1001.3
2017-07-23T10:44:56.761Z,1001.4
2017-07-23T10:45:58.171Z,1001.3
2017-07-23T10:46:59.578Z,1001.3
2017-07-23T10:48:00.992Z,1001.4
2017-07-23T10:49:02.392Z,1001.4
2017-07-23T10:50:03.797Z,1001.4
2017-07-23T10:51:05.203Z,1001.4
2017-07-23T10:52:06.611Z,1001.4
2017-07-23T10:53:08.024Z,1001.4
2017-07-23T10:54:09.431Z,1001.4
2017-07-23T10:55:10.870Z,1001.5
2017-07-23T10:56:12.274Z,1001.5
2017-07-23T10:57:13.685Z,1001.5
2017-07-23T10:58:15.084Z,1001.6
2017-07-23T10:59:16.492Z,1001.5
2017-07-23T11:00:17.903Z,1001.6
2017-07-23T11:01:19.313Z,1001.5
2017-07-23T11:02:20.715Z,1001.6
2017-07-23T11:03:22.126Z,1001.5
2017-07-23T11:04:23.532Z,1001.5
2017-07-23T11:05:24.945Z,1001.6
2017-07-23T11:06:26.355Z,1001.5
2017-07-23T11:07:27.762Z,1001.5
2017-07-23T11:08:29.170Z,1001.6
2017-07-23T11:09:30.602Z,1001.6
2017-07-23T11:10:32.010Z,1001.6
2017-07-23T11:11:33.416Z,1001.6
2017-07-23T11:12:34.824Z,1001.6
2017-07-23T11:13:36.231Z,1001.5
2017-07-23T11:14:37.639Z,1001.6
2017-07-23T11:15:39.051Z,1001.6
2017-07-23T11:16:40.461Z,1001.5
2017-07-23T11:17:41.869Z,1001.5
2017-07-23T11:18:43.273Z,1001.5
2017-07-23T11:19:44.693Z,1001.5
2017-07-23T11:20:46.099Z,1001.5
2017-07-23T11:21:47.509Z,1001.5
2017-07-23T11:22:48.918Z,1001.5
2017-07-23T11:23:50.328Z,1001.5
2017-07-23T11:24:51.733Z,1001.6
2017-07-23T11:25:53.157Z,1001.6
2017-07-23T11:26:54.561Z,1001.6
2017-07-23T11:27:55.968Z,1001.7
2017-07-23T11:28:57.388Z,1001.6
2017-07-23T11:29:58.794Z,1001.6
2017-07-23T11:31:00.206Z,1001.6
2017-07-23T11:32:01.611Z,1001.5
2017-07-23T11:33:03.037Z,1001.6
2017-07-23T11:34:04.423Z,1001.6
2017-07-23T11:35:05.872Z,1001.6
2017-07-23T11:36:07.277Z,1001.6
2017-07-23T11:37:08.688Z,1001.6
2017-07-23T11:38:10.092Z,1001.6
2017-07-23T11:39:11.500Z,1001.6
2017-07-23T11:40:12.915Z,1001.6
2017-07-23T11:41:14.320Z,1001.7
2017-07-23T11:42:15.727Z,1001.6
2017-07-23T11:43:17.140Z,1001.6
2017-07-23T11:44:18.552Z,1001.6
2017-07-23T11:45:19.952Z,1001.6
2017-07-23T11:46:21.362Z,1001.6
2017-07-23T11:47:22.805Z,1001.6
2017-07-23T11:48:24.216Z,1001.5
2017-07-23T11:49:25.616Z,1001.6
2017-07-23T11:50:27.021Z,1001.5
2017-07-23T11:51:28.429Z,1001.6
2017-07-23T11:52:29.836Z,1001.5
2017-07-23T11:53:31.244Z,1001.6
2017-07-23T11:54:32.655Z,1001.6
2017-07-23T11:55:34.058Z,1001.7
2017-07-23T11:56:35.512Z,1001.6
2017-07-23T11:57:36.955Z,1001.6
2017-07-23T11:58:38.385Z,1001.6
2017-07-23T11:59:39.799Z,1001.5
2017-07-23T12:00:41.254Z,1001.6
2017-07-23T12:01:42.724Z,1001.6
2017-07-23T12:02:44.132Z,1001.6
2017-07-23T12:03:45.536Z,1001.5
2017-07-23T12:04:46.941Z,1001.5
2017-07-23T12:05:48.349Z,1001.5
2017-07-23T12:06:49.757Z,1001.6
2017-07-23T12:07:51.161Z,1001.5
2017-07-23T12:08:52.570Z,1001.6
2017-07-23T12:09:53.976Z,1001.5
2017-07-23T12:10:55.383Z,1001.5
2017-07-23T12:11:56.790Z,1001.6
2017-07-23T12:12:58.215Z,1001.4
2017-07-23T12:13:59.621Z,1001.5
2017-07-23T12:15:01.024Z,1001.5
2017-07-23T12:16:02.435Z,1001.7
2017-07-23T12:17:03.847Z,1001.5
2017-07-23T12:18:05.261Z,1001.5
2017-07-23T12:19:06.667Z,1001.5
2017-07-23T12:20:08.075Z,1001.5
2017-07-23T12:21:09.481Z,1001.5
2017-07-23T12:22:10.885Z,1001.5
2017-07-23T12:23:12.293Z,1001.5
2017-07-23T12:24:13.705Z,1001.5
2017-07-23T12:25:15.106Z,1001.5
2017-07-23T12:26:16.517Z,1001.6
2017-07-23T12:27:17.929Z,1001.6
2017-07-23T12:28:19.343Z,1001.5
2017-07-23T12:29:20.755Z,1001.6
2017-07-23T12:30:22.158Z,1001.6
2017-07-23T12:31:23.566Z,1001.6
2017-07-23T12:32:24.976Z,1001.6
2017-07-23T12:33:26.382Z,1001.5
2017-07-23T12:34:27.791Z,1001.5
2017-07-23T12:35:29.202Z,1001.5
2017-07-23T12:36:30.607Z,1001.5
2017-07-23T12:37:32.014Z,1001.6
2017-07-23T12:38:33.426Z,1001.5
2017-07-23T12:39:34.825Z,1001.5
2017-07-23T12:40:36.235Z,1001.4
2017-07-23T12:41:37.645Z,1001.4
2017-07-23T12:42:39.053Z,1001.4
2017-07-23T12:43:40.461Z,1001.5
2017-07-23T12:44:41.865Z,1001.4
2017-07-23T12:45:43.272Z,1001.4
2017-07-23T12:46:44.678Z,1001.6
2017-07-23T12:47:46.085Z,1001.5
2017-07-23T12:48:47.500Z,1001.5
2017-07-23T12:49:48.912Z,1001.5
2017-07-23T12:50:50.319Z,1001.4
2017-07-23T12:51:51.724Z,1001.4
2017-07-23T12:52:53.132Z,1001.4